sensor_id;sensor_type;location;lat;lon;timestamp;P1;durP1;ratioP1;P2;durP2;ratioP2
53299;SDS011;39187;48.476;8.310;2024-03-08T00:01:59;74.27;;;31.70;;
53299;SDS011;39187;48.476;8.310;2024-03-08T00:04:25;57.70;;;30.30;;
53299;SDS011;39187;48.476;8.310;2024-03-08T00:06:51;58.47;;;29.47;;
53299;SDS011;39187;48.476;8.310;2024-03-08T00:09:16;69.17;;;33.53;;
53299;SDS011;39187;48.476;8.310;2024-03-08T00:11:41;52.70;;;28.93;;
53299;SDS011;39187;48.476;8.310;2024-03-08T00:14:07;58.70;;;30.87;;
53299;SDS011;39187;48.476;8.310;2024-03-08T00:16:33;62.70;;;29.47;;
53299;SDS011;39187;48.476;8.310;2024-03-08T00:18:59;56.43;;;29.97;;
53299;SDS011;39187;48.476;8.310;2024-03-08T00:21:24;62.67;;;31.23;;
53299;SDS011;39187;48.476;8.310;2024-03-08T00:23:52;61.53;;;31.43;;
53299;SDS011;39187;48.476;8.310;2024-03-08T00:26:20;57.97;;;28.93;;
53299;SDS011;39187;48.476;8.310;2024-03-08T00:28:47;60.30;;;30.57;;
53299;SDS011;39187;48.476;8.310;2024-03-08T00:31:14;56.93;;;31.40;;
53299;SDS011;39187;48.476;8.310;2024-03-08T00:33:42;54.97;;;28.00;;
53299;SDS011;39187;48.476;8.310;2024-03-08T00:36:07;67.17;;;32.83;;
53299;SDS011;39187;48.476;8.310;2024-03-08T00:38:33;67.60;;;33.00;;
53299;SDS011;39187;48.476;8.310;2024-03-08T00:40:59;61.00;;;30.30;;
53299;SDS011;39187;48.476;8.310;2024-03-08T00:43:25;70.37;;;33.90;;
53299;SDS011;39187;48.476;8.310;2024-03-08T00:45:51;66.97;;;31.63;;
53299;SDS011;39187;48.476;8.310;2024-03-08T00:48:16;67.53;;;34.73;;
53299;SDS011;39187;48.476;8.310;2024-03-08T00:50:42;63.37;;;33.07;;
53299;SDS011;39187;48.476;8.310;2024-03-08T00:53:10;64.97;;;30.83;;
53299;SDS011;39187;48.476;8.310;2024-03-08T00:55:36;60.77;;;31.40;;
53299;SDS011;39187;48.476;8.310;2024-03-08T00:58:03;59.30;;;31.00;;
53299;SDS011;39187;48.476;8.310;2024-03-08T01:00:29;63.17;;;30.03;;
53299;SDS011;39187;48.476;8.310;2024-03-08T01:02:54;66.23;;;30.87;;
53299;SDS011;39187;48.476;8.310;2024-03-08T01:05:20;61.30;;;30.50;;
53299;SDS011;39187;48.476;8.310;2024-03-08T01:07:46;60.00;;;30.27;;
53299;SDS011;39187;48.476;8.310;2024-03-08T01:10:12;71.43;;;32.50;;
53299;SDS011;39187;48.476;8.310;2024-03-08T01:12:38;62.63;;;31.33;;
53299;SDS011;39187;48.476;8.310;2024-03-08T01:15:04;60.10;;;31.90;;
53299;SDS011;39187;48.476;8.310;2024-03-08T01:17:30;68.37;;;32.53;;
53299;SDS011;39187;48.476;8.310;2024-03-08T01:19:56;61.83;;;30.17;;
53299;SDS011;39187;48.476;8.310;2024-03-08T01:22:21;64.87;;;30.50;;
53299;SDS011;39187;48.476;8.310;2024-03-08T01:24:48;65.57;;;32.33;;
53299;SDS011;39187;48.476;8.310;2024-03-08T01:27:13;69.63;;;32.50;;
53299;SDS011;39187;48.476;8.310;2024-03-08T01:29:39;70.17;;;30.67;;
53299;SDS011;39187;48.476;8.310;2024-03-08T01:32:05;65.63;;;32.33;;
53299;SDS011;39187;48.476;8.310;2024-03-08T01:34:31;67.10;;;32.67;;
53299;SDS011;39187;48.476;8.310;2024-03-08T01:36:58;62.77;;;30.40;;
53299;SDS011;39187;48.476;8.310;2024-03-08T01:39:24;56.53;;;31.27;;
53299;SDS011;39187;48.476;8.310;2024-03-08T01:41:50;61.87;;;28.43;;
53299;SDS011;39187;48.476;8.310;2024-03-08T01:44:15;66.97;;;32.80;;
53299;SDS011;39187;48.476;8.310;2024-03-08T01:46:45;64.43;;;33.77;;
53299;SDS011;39187;48.476;8.310;2024-03-08T01:49:11;69.87;;;32.37;;
53299;SDS011;39187;48.476;8.310;2024-03-08T01:51:38;61.47;;;30.30;;
53299;SDS011;39187;48.476;8.310;2024-03-08T01:54:05;64.50;;;31.70;;
53299;SDS011;39187;48.476;8.310;2024-03-08T01:56:32;62.33;;;32.80;;
53299;SDS011;39187;48.476;8.310;2024-03-08T01:58:58;59.80;;;30.97;;
53299;SDS011;39187;48.476;8.310;2024-03-08T02:01:25;59.10;;;31.20;;
53299;SDS011;39187;48.476;8.310;2024-03-08T02:03:52;57.13;;;30.93;;
53299;SDS011;39187;48.476;8.310;2024-03-08T02:06:18;62.47;;;31.83;;
53299;SDS011;39187;48.476;8.310;2024-03-08T02:08:43;65.60;;;32.30;;
53299;SDS011;39187;48.476;8.310;2024-03-08T02:11:10;70.63;;;31.57;;
53299;SDS011;39187;48.476;8.310;2024-03-08T02:13:36;65.30;;;29.87;;
53299;SDS011;39187;48.476;8.310;2024-03-08T02:16:02;60.40;;;32.00;;
53299;SDS011;39187;48.476;8.310;2024-03-08T02:18:28;65.37;;;32.20;;
53299;SDS011;39187;48.476;8.310;2024-03-08T02:20:58;57.57;;;28.80;;
53299;SDS011;39187;48.476;8.310;2024-03-08T02:23:24;65.97;;;30.73;;
53299;SDS011;39187;48.476;8.310;2024-03-08T02:25:51;71.93;;;32.50;;
53299;SDS011;39187;48.476;8.310;2024-03-08T02:28:18;69.47;;;33.23;;
53299;SDS011;39187;48.476;8.310;2024-03-08T02:30:44;64.47;;;30.37;;
53299;SDS011;39187;48.476;8.310;2024-03-08T02:33:14;61.80;;;30.67;;
53299;SDS011;39187;48.476;8.310;2024-03-08T02:35:46;67.30;;;32.27;;
53299;SDS011;39187;48.476;8.310;2024-03-08T02:38:13;79.07;;;30.97;;
53299;SDS011;39187;48.476;8.310;2024-03-08T02:40:42;59.87;;;30.27;;
53299;SDS011;39187;48.476;8.310;2024-03-08T02:43:08;59.70;;;29.83;;
53299;SDS011;39187;48.476;8.310;2024-03-08T02:45:35;62.97;;;28.93;;
53299;SDS011;39187;48.476;8.310;2024-03-08T02:48:00;65.47;;;30.60;;
53299;SDS011;39187;48.476;8.310;2024-03-08T02:50:26;62.90;;;29.60;;
53299;SDS011;39187;48.476;8.310;2024-03-08T02:52:51;60.47;;;29.70;;
53299;SDS011;39187;48.476;8.310;2024-03-08T02:55:17;66.03;;;31.37;;
53299;SDS011;39187;48.476;8.310;2024-03-08T02:57:42;64.30;;;30.87;;
53299;SDS011;39187;48.476;8.310;2024-03-08T03:00:14;62.90;;;32.00;;
53299;SDS011;39187;48.476;8.310;2024-03-08T03:02:40;57.73;;;30.60;;
53299;SDS011;39187;48.476;8.310;2024-03-08T03:05:07;67.53;;;29.77;;
53299;SDS011;39187;48.476;8.310;2024-03-08T03:07:35;71.13;;;30.73;;
53299;SDS011;39187;48.476;8.310;2024-03-08T03:10:00;61.97;;;31.03;;
53299;SDS011;39187;48.476;8.310;2024-03-08T03:12:29;57.17;;;28.73;;
53299;SDS011;39187;48.476;8.310;2024-03-08T03:14:56;69.93;;;32.30;;
53299;SDS011;39187;48.476;8.310;2024-03-08T03:17:25;70.53;;;35.47;;
53299;SDS011;39187;48.476;8.310;2024-03-08T03:19:51;65.53;;;29.50;;
53299;SDS011;39187;48.476;8.310;2024-03-08T03:22:18;61.43;;;31.00;;
53299;SDS011;39187;48.476;8.310;2024-03-08T03:24:44;70.83;;;31.23;;
53299;SDS011;39187;48.476;8.310;2024-03-08T03:27:11;55.57;;;29.07;;
53299;SDS011;39187;48.476;8.310;2024-03-08T03:29:41;69.30;;;32.10;;
53299;SDS011;39187;48.476;8.310;2024-03-08T03:32:10;64.50;;;30.57;;
53299;SDS011;39187;48.476;8.310;2024-03-08T03:34:37;60.40;;;29.93;;
53299;SDS011;39187;48.476;8.310;2024-03-08T03:37:03;53.87;;;29.00;;
53299;SDS011;39187;48.476;8.310;2024-03-08T03:39:29;67.87;;;33.13;;
53299;SDS011;39187;48.476;8.310;2024-03-08T03:41:59;70.00;;;30.40;;
53299;SDS011;39187;48.476;8.310;2024-03-08T03:44:27;69.80;;;34.33;;
53299;SDS011;39187;48.476;8.310;2024-03-08T03:46:53;62.23;;;29.80;;
53299;SDS011;39187;48.476;8.310;2024-03-08T03:49:19;74.87;;;32.67;;
53299;SDS011;39187;48.476;8.310;2024-03-08T03:51:45;82.20;;;34.10;;
53299;SDS011;39187;48.476;8.310;2024-03-08T03:54:11;77.63;;;33.77;;
53299;SDS011;39187;48.476;8.310;2024-03-08T03:56:36;57.63;;;29.00;;
53299;SDS011;39187;48.476;8.310;2024-03-08T03:59:02;63.93;;;31.47;;
53299;SDS011;39187;48.476;8.310;2024-03-08T04:01:28;71.70;;;32.50;;
53299;SDS011;39187;48.476;8.310;2024-03-08T04:03:54;65.73;;;33.70;;
53299;SDS011;39187;48.476;8.310;2024-03-08T04:06:20;61.40;;;30.87;;
53299;SDS011;39187;48.476;8.310;2024-03-08T04:08:45;60.27;;;32.30;;
53299;SDS011;39187;48.476;8.310;2024-03-08T04:11:11;77.00;;;32.87;;
53299;SDS011;39187;48.476;8.310;2024-03-08T04:13:36;68.90;;;32.00;;
53299;SDS011;39187;48.476;8.310;2024-03-08T04:16:02;72.30;;;32.73;;
53299;SDS011;39187;48.476;8.310;2024-03-08T04:18:31;62.10;;;32.60;;
53299;SDS011;39187;48.476;8.310;2024-03-08T04:20:56;65.33;;;35.20;;
53299;SDS011;39187;48.476;8.310;2024-03-08T04:23:22;64.50;;;31.77;;
53299;SDS011;39187;48.476;8.310;2024-03-08T04:25:47;66.57;;;32.23;;
53299;SDS011;39187;48.476;8.310;2024-03-08T04:28:13;64.77;;;32.30;;
53299;SDS011;39187;48.476;8.310;2024-03-08T04:30:39;68.40;;;31.33;;
53299;SDS011;39187;48.476;8.310;2024-03-08T04:33:04;71.83;;;31.63;;
53299;SDS011;39187;48.476;8.310;2024-03-08T04:35:32;70.60;;;33.73;;
53299;SDS011;39187;48.476;8.310;2024-03-08T04:37:58;68.80;;;32.07;;
53299;SDS011;39187;48.476;8.310;2024-03-08T04:40:23;69.43;;;32.13;;
53299;SDS011;39187;48.476;8.310;2024-03-08T04:42:49;93.40;;;35.87;;
53299;SDS011;39187;48.476;8.310;2024-03-08T04:45:17;65.23;;;31.87;;
53299;SDS011;39187;48.476;8.310;2024-03-08T04:47:42;71.10;;;31.70;;
53299;SDS011;39187;48.476;8.310;2024-03-08T04:50:08;127.97;;;35.10;;
53299;SDS011;39187;48.476;8.310;2024-03-08T04:52:34;155.53;;;37.10;;
53299;SDS011;39187;48.476;8.310;2024-03-08T04:55:01;183.33;;;33.93;;
53299;SDS011;39187;48.476;8.310;2024-03-08T04:57:29;181.07;;;36.70;;
53299;SDS011;39187;48.476;8.310;2024-03-08T04:59:55;74.97;;;33.03;;
53299;SDS011;39187;48.476;8.310;2024-03-08T05:02:20;120.80;;;33.77;;
53299;SDS011;39187;48.476;8.310;2024-03-08T05:04:47;167.13;;;34.27;;
53299;SDS011;39187;48.476;8.310;2024-03-08T05:07:13;87.77;;;34.40;;
53299;SDS011;39187;48.476;8.310;2024-03-08T05:09:38;170.27;;;35.40;;
53299;SDS011;39187;48.476;8.310;2024-03-08T05:12:06;124.47;;;35.20;;
53299;SDS011;39187;48.476;8.310;2024-03-08T05:14:31;234.30;;;38.20;;
53299;SDS011;39187;48.476;8.310;2024-03-08T05:16:57;249.53;;;36.07;;
53299;SDS011;39187;48.476;8.310;2024-03-08T05:19:22;243.93;;;41.97;;
53299;SDS011;39187;48.476;8.310;2024-03-08T05:21:49;347.97;;;43.40;;
53299;SDS011;39187;48.476;8.310;2024-03-08T05:24:15;190.20;;;37.83;;
53299;SDS011;39187;48.476;8.310;2024-03-08T05:26:41;116.53;;;35.97;;
53299;SDS011;39187;48.476;8.310;2024-03-08T05:29:10;159.13;;;34.97;;
53299;SDS011;39187;48.476;8.310;2024-03-08T05:31:43;339.20;;;42.50;;
53299;SDS011;39187;48.476;8.310;2024-03-08T05:34:12;152.83;;;36.90;;
53299;SDS011;39187;48.476;8.310;2024-03-08T05:36:40;336.40;;;43.20;;
53299;SDS011;39187;48.476;8.310;2024-03-08T05:39:06;386.13;;;46.60;;
53299;SDS011;39187;48.476;8.310;2024-03-08T05:41:32;412.47;;;42.10;;
53299;SDS011;39187;48.476;8.310;2024-03-08T05:43:57;550.27;;;52.83;;
53299;SDS011;39187;48.476;8.310;2024-03-08T05:46:23;470.37;;;47.10;;
53299;SDS011;39187;48.476;8.310;2024-03-08T05:48:48;509.67;;;45.57;;
53299;SDS011;39187;48.476;8.310;2024-03-08T05:51:14;367.57;;;44.63;;
53299;SDS011;39187;48.476;8.310;2024-03-08T05:53:39;214.57;;;34.53;;
53299;SDS011;39187;48.476;8.310;2024-03-08T05:56:05;443.00;;;46.20;;
53299;SDS011;39187;48.476;8.310;2024-03-08T05:58:30;425.03;;;43.00;;
53299;SDS011;39187;48.476;8.310;2024-03-08T06:00:56;180.80;;;32.83;;
53299;SDS011;39187;48.476;8.310;2024-03-08T06:03:22;300.13;;;36.77;;
53299;SDS011;39187;48.476;8.310;2024-03-08T06:05:50;444.17;;;44.33;;
53299;SDS011;39187;48.476;8.310;2024-03-08T06:08:16;325.13;;;37.60;;
53299;SDS011;39187;48.476;8.310;2024-03-08T06:10:41;212.60;;;36.23;;
53299;SDS011;39187;48.476;8.310;2024-03-08T06:13:07;127.63;;;32.07;;
53299;SDS011;39187;48.476;8.310;2024-03-08T06:15:32;309.50;;;41.43;;
53299;SDS011;39187;48.476;8.310;2024-03-08T06:17:59;313.53;;;38.00;;
53299;SDS011;39187;48.476;8.310;2024-03-08T06:20:25;316.40;;;38.30;;
53299;SDS011;39187;48.476;8.310;2024-03-08T06:22:51;355.50;;;41.70;;
53299;SDS011;39187;48.476;8.310;2024-03-08T06:25:17;334.67;;;41.90;;
53299;SDS011;39187;48.476;8.310;2024-03-08T06:27:43;327.47;;;38.90;;
53299;SDS011;39187;48.476;8.310;2024-03-08T06:30:09;274.37;;;38.93;;
53299;SDS011;39187;48.476;8.310;2024-03-08T06:32:38;89.43;;;33.07;;
53299;SDS011;39187;48.476;8.310;2024-03-08T06:35:04;448.77;;;51.23;;
53299;SDS011;39187;48.476;8.310;2024-03-08T06:37:34;441.47;;;45.83;;
53299;SDS011;39187;48.476;8.310;2024-03-08T06:40:00;429.67;;;47.23;;
53299;SDS011;39187;48.476;8.310;2024-03-08T06:42:29;362.50;;;40.43;;
53299;SDS011;39187;48.476;8.310;2024-03-08T06:44:58;416.93;;;43.07;;
53299;SDS011;39187;48.476;8.310;2024-03-08T06:47:29;413.43;;;47.27;;
53299;SDS011;39187;48.476;8.310;2024-03-08T06:49:55;298.37;;;36.87;;
53299;SDS011;39187;48.476;8.310;2024-03-08T06:52:20;223.03;;;34.67;;
53299;SDS011;39187;48.476;8.310;2024-03-08T06:54:47;339.17;;;39.07;;
53299;SDS011;39187;48.476;8.310;2024-03-08T06:57:13;366.10;;;40.57;;
53299;SDS011;39187;48.476;8.310;2024-03-08T06:59:39;324.67;;;38.43;;
53299;SDS011;39187;48.476;8.310;2024-03-08T07:02:04;206.77;;;34.40;;
53299;SDS011;39187;48.476;8.310;2024-03-08T07:04:30;214.83;;;36.70;;
53299;SDS011;39187;48.476;8.310;2024-03-08T07:06:56;298.23;;;36.23;;
53299;SDS011;39187;48.476;8.310;2024-03-08T07:09:22;371.27;;;46.37;;
53299;SDS011;39187;48.476;8.310;2024-03-08T07:11:51;304.97;;;34.20;;
53299;SDS011;39187;48.476;8.310;2024-03-08T07:14:22;297.30;;;40.20;;
53299;SDS011;39187;48.476;8.310;2024-03-08T07:16:48;403.50;;;41.50;;
53299;SDS011;39187;48.476;8.310;2024-03-08T07:19:14;271.20;;;35.03;;
53299;SDS011;39187;48.476;8.310;2024-03-08T07:21:40;415.97;;;43.57;;
53299;SDS011;39187;48.476;8.310;2024-03-08T07:24:07;548.73;;;49.43;;
53299;SDS011;39187;48.476;8.310;2024-03-08T07:26:42;318.53;;;35.60;;
53299;SDS011;39187;48.476;8.310;2024-03-08T07:29:14;365.83;;;37.60;;
53299;SDS011;39187;48.476;8.310;2024-03-08T07:31:40;338.00;;;37.03;;
53299;SDS011;39187;48.476;8.310;2024-03-08T07:34:06;532.77;;;49.87;;
53299;SDS011;39187;48.476;8.310;2024-03-08T07:36:33;431.60;;;41.00;;
53299;SDS011;39187;48.476;8.310;2024-03-08T07:39:00;485.60;;;43.93;;
53299;SDS011;39187;48.476;8.310;2024-03-08T07:41:26;341.13;;;38.13;;
53299;SDS011;39187;48.476;8.310;2024-03-08T07:43:51;710.47;;;56.43;;
53299;SDS011;39187;48.476;8.310;2024-03-08T07:46:17;257.50;;;33.37;;
53299;SDS011;39187;48.476;8.310;2024-03-08T07:48:43;442.93;;;43.10;;
53299;SDS011;39187;48.476;8.310;2024-03-08T07:51:10;288.70;;;35.10;;
53299;SDS011;39187;48.476;8.310;2024-03-08T07:53:37;200.67;;;33.97;;
53299;SDS011;39187;48.476;8.310;2024-03-08T07:56:03;153.47;;;30.63;;
53299;SDS011;39187;48.476;8.310;2024-03-08T07:58:32;137.43;;;29.13;;
53299;SDS011;39187;48.476;8.310;2024-03-08T08:00:58;465.53;;;43.60;;
53299;SDS011;39187;48.476;8.310;2024-03-08T08:03:23;325.67;;;33.83;;
53299;SDS011;39187;48.476;8.310;2024-03-08T08:05:49;111.80;;;27.73;;
53299;SDS011;39187;48.476;8.310;2024-03-08T08:08:14;258.17;;;32.20;;
53299;SDS011;39187;48.476;8.310;2024-03-08T08:10:40;148.23;;;29.37;;
53299;SDS011;39187;48.476;8.310;2024-03-08T08:13:05;475.33;;;45.23;;
53299;SDS011;39187;48.476;8.310;2024-03-08T08:15:31;526.47;;;52.47;;
53299;SDS011;39187;48.476;8.310;2024-03-08T08:17:59;293.37;;;35.83;;
53299;SDS011;39187;48.476;8.310;2024-03-08T08:20:25;127.30;;;27.13;;
53299;SDS011;39187;48.476;8.310;2024-03-08T08:22:53;158.70;;;30.00;;
53299;SDS011;39187;48.476;8.310;2024-03-08T08:25:20;128.93;;;28.97;;
53299;SDS011;39187;48.476;8.310;2024-03-08T08:27:45;161.87;;;30.10;;
53299;SDS011;39187;48.476;8.310;2024-03-08T08:30:12;389.20;;;38.80;;
53299;SDS011;39187;48.476;8.310;2024-03-08T08:32:38;149.60;;;28.67;;
53299;SDS011;39187;48.476;8.310;2024-03-08T08:35:05;76.37;;;27.30;;
53299;SDS011;39187;48.476;8.310;2024-03-08T08:37:31;336.23;;;40.73;;
53299;SDS011;39187;48.476;8.310;2024-03-08T08:39:57;131.20;;;30.60;;
53299;SDS011;39187;48.476;8.310;2024-03-08T08:42:23;298.70;;;34.40;;
53299;SDS011;39187;48.476;8.310;2024-03-08T08:44:49;100.40;;;29.43;;
53299;SDS011;39187;48.476;8.310;2024-03-08T08:47:15;133.37;;;26.00;;
53299;SDS011;39187;48.476;8.310;2024-03-08T08:49:44;95.80;;;27.00;;
53299;SDS011;39187;48.476;8.310;2024-03-08T08:52:11;99.53;;;26.53;;
53299;SDS011;39187;48.476;8.310;2024-03-08T08:54:37;51.97;;;23.43;;
53299;SDS011;39187;48.476;8.310;2024-03-08T08:57:03;78.13;;;23.73;;
53299;SDS011;39187;48.476;8.310;2024-03-08T08:59:33;106.40;;;27.10;;
53299;SDS011;39187;48.476;8.310;2024-03-08T09:02:02;104.07;;;26.30;;
53299;SDS011;39187;48.476;8.310;2024-03-08T09:04:31;89.33;;;25.53;;
53299;SDS011;39187;48.476;8.310;2024-03-08T09:06:56;82.27;;;25.27;;
53299;SDS011;39187;48.476;8.310;2024-03-08T09:09:22;98.47;;;27.17;;
53299;SDS011;39187;48.476;8.310;2024-03-08T09:11:48;113.50;;;26.40;;
53299;SDS011;39187;48.476;8.310;2024-03-08T09:14:15;113.03;;;29.23;;
53299;SDS011;39187;48.476;8.310;2024-03-08T09:16:40;101.60;;;25.03;;
53299;SDS011;39187;48.476;8.310;2024-03-08T09:19:06;86.67;;;24.53;;
53299;SDS011;39187;48.476;8.310;2024-03-08T09:21:32;193.93;;;28.10;;
53299;SDS011;39187;48.476;8.310;2024-03-08T09:23:59;66.87;;;24.37;;
53299;SDS011;39187;48.476;8.310;2024-03-08T09:26:25;77.23;;;24.77;;
53299;SDS011;39187;48.476;8.310;2024-03-08T09:28:51;90.60;;;24.87;;
53299;SDS011;39187;48.476;8.310;2024-03-08T09:31:17;176.47;;;30.90;;
53299;SDS011;39187;48.476;8.310;2024-03-08T09:33:43;75.27;;;24.10;;
53299;SDS011;39187;48.476;8.310;2024-03-08T09:36:08;118.93;;;25.00;;
53299;SDS011;39187;48.476;8.310;2024-03-08T09:38:34;110.30;;;23.60;;
53299;SDS011;39187;48.476;8.310;2024-03-08T09:40:59;80.17;;;24.83;;
53299;SDS011;39187;48.476;8.310;2024-03-08T09:43:27;70.40;;;24.33;;
53299;SDS011;39187;48.476;8.310;2024-03-08T09:45:53;91.83;;;22.70;;
53299;SDS011;39187;48.476;8.310;2024-03-08T09:48:20;59.40;;;25.67;;
53299;SDS011;39187;48.476;8.310;2024-03-08T09:50:47;75.10;;;24.23;;
53299;SDS011;39187;48.476;8.310;2024-03-08T09:53:14;53.97;;;23.47;;
53299;SDS011;39187;48.476;8.310;2024-03-08T09:55:40;115.87;;;25.53;;
53299;SDS011;39187;48.476;8.310;2024-03-08T09:58:10;134.80;;;28.27;;
53299;SDS011;39187;48.476;8.310;2024-03-08T10:00:55;62.47;;;23.77;;
53299;SDS011;39187;48.476;8.310;2024-03-08T10:03:26;72.47;;;24.90;;
53299;SDS011;39187;48.476;8.310;2024-03-08T10:05:52;67.63;;;24.60;;
53299;SDS011;39187;48.476;8.310;2024-03-08T10:08:21;81.10;;;25.83;;
53299;SDS011;39187;48.476;8.310;2024-03-08T10:10:47;102.67;;;26.60;;
53299;SDS011;39187;48.476;8.310;2024-03-08T10:13:14;44.30;;;25.33;;
53299;SDS011;39187;48.476;8.310;2024-03-08T10:15:42;52.20;;;24.23;;
53299;SDS011;39187;48.476;8.310;2024-03-08T10:18:07;48.20;;;24.20;;
53299;SDS011;39187;48.476;8.310;2024-03-08T10:20:33;59.90;;;24.83;;
53299;SDS011;39187;48.476;8.310;2024-03-08T10:23:05;47.63;;;24.77;;
53299;SDS011;39187;48.476;8.310;2024-03-08T10:25:32;42.30;;;24.27;;
53299;SDS011;39187;48.476;8.310;2024-03-08T10:27:58;55.20;;;24.33;;
53299;SDS011;39187;48.476;8.310;2024-03-08T10:30:23;54.50;;;23.50;;
53299;SDS011;39187;48.476;8.310;2024-03-08T10:32:49;38.20;;;22.60;;
53299;SDS011;39187;48.476;8.310;2024-03-08T10:35:16;45.17;;;25.30;;
53299;SDS011;39187;48.476;8.310;2024-03-08T10:40:22;47.80;;;24.90;;
53299;SDS011;39187;48.476;8.310;2024-03-08T10:42:53;50.20;;;23.43;;
53299;SDS011;39187;48.476;8.310;2024-03-08T10:51:02;45.63;;;25.50;;
53299;SDS011;39187;48.476;8.310;2024-03-08T10:53:28;42.43;;;24.17;;
53299;SDS011;39187;48.476;8.310;2024-03-08T10:55:57;38.47;;;23.00;;
53299;SDS011;39187;48.476;8.310;2024-03-08T10:58:27;50.10;;;24.97;;
53299;SDS011;39187;48.476;8.310;2024-03-08T11:00:54;86.97;;;24.33;;
53299;SDS011;39187;48.476;8.310;2024-03-08T11:06:31;48.27;;;24.27;;
53299;SDS011;39187;48.476;8.310;2024-03-08T11:14:50;58.97;;;23.40;;
53299;SDS011;39187;48.476;8.310;2024-03-08T11:17:21;38.20;;;23.97;;
53299;SDS011;39187;48.476;8.310;2024-03-08T11:19:47;36.13;;;21.40;;
53299;SDS011;39187;48.476;8.310;2024-03-08T11:22:24;41.77;;;23.40;;
53299;SDS011;39187;48.476;8.310;2024-03-08T11:25:03;50.33;;;24.67;;
53299;SDS011;39187;48.476;8.310;2024-03-08T11:27:37;40.33;;;22.57;;
53299;SDS011;39187;48.476;8.310;2024-03-08T11:30:06;38.20;;;23.70;;
53299;SDS011;39187;48.476;8.310;2024-03-08T11:32:50;36.73;;;22.20;;
53299;SDS011;39187;48.476;8.310;2024-03-08T11:35:22;40.57;;;22.20;;
53299;SDS011;39187;48.476;8.310;2024-03-08T11:37:48;33.00;;;21.03;;
53299;SDS011;39187;48.476;8.310;2024-03-08T11:40:14;41.07;;;24.50;;
53299;SDS011;39187;48.476;8.310;2024-03-08T11:42:45;40.87;;;23.87;;
53299;SDS011;39187;48.476;8.310;2024-03-08T11:45:16;37.73;;;23.57;;
53299;SDS011;39187;48.476;8.310;2024-03-08T11:47:43;45.70;;;25.93;;
53299;SDS011;39187;48.476;8.310;2024-03-08T11:50:11;39.10;;;23.00;;
53299;SDS011;39187;48.476;8.310;2024-03-08T11:52:37;33.43;;;20.40;;
53299;SDS011;39187;48.476;8.310;2024-03-08T11:55:03;32.93;;;21.80;;
53299;SDS011;39187;48.476;8.310;2024-03-08T11:57:30;36.37;;;23.27;;
53299;SDS011;39187;48.476;8.310;2024-03-08T11:59:57;33.80;;;19.00;;
53299;SDS011;39187;48.476;8.310;2024-03-08T12:02:23;34.90;;;21.00;;
53299;SDS011;39187;48.476;8.310;2024-03-08T12:04:59;32.97;;;20.40;;
53299;SDS011;39187;48.476;8.310;2024-03-08T12:07:28;38.43;;;21.97;;
53299;SDS011;39187;48.476;8.310;2024-03-08T12:10:16;32.70;;;21.50;;
53299;SDS011;39187;48.476;8.310;2024-03-08T12:12:46;33.57;;;20.33;;
53299;SDS011;39187;48.476;8.310;2024-03-08T12:15:15;30.20;;;19.60;;
53299;SDS011;39187;48.476;8.310;2024-03-08T12:17:43;36.00;;;20.00;;
53299;SDS011;39187;48.476;8.310;2024-03-08T12:20:12;31.70;;;20.40;;
53299;SDS011;39187;48.476;8.310;2024-03-08T12:22:43;31.00;;;19.80;;
53299;SDS011;39187;48.476;8.310;2024-03-08T12:25:12;32.87;;;19.60;;
53299;SDS011;39187;48.476;8.310;2024-03-08T12:27:39;35.20;;;19.63;;
53299;SDS011;39187;48.476;8.310;2024-03-08T12:30:21;28.47;;;18.40;;
53299;SDS011;39187;48.476;8.310;2024-03-08T12:32:52;29.40;;;19.13;;
53299;SDS011;39187;48.476;8.310;2024-03-08T12:35:21;34.67;;;20.17;;
53299;SDS011;39187;48.476;8.310;2024-03-08T12:37:49;36.90;;;19.93;;
53299;SDS011;39187;48.476;8.310;2024-03-08T12:40:16;26.43;;;18.30;;
53299;SDS011;39187;48.476;8.310;2024-03-08T12:42:43;31.93;;;20.03;;
53299;SDS011;39187;48.476;8.310;2024-03-08T12:45:09;28.53;;;19.27;;
53299;SDS011;39187;48.476;8.310;2024-03-08T12:47:35;37.67;;;20.60;;
53299;SDS011;39187;48.476;8.310;2024-03-08T12:50:01;31.97;;;20.07;;
53299;SDS011;39187;48.476;8.310;2024-03-08T12:52:28;29.37;;;19.57;;
53299;SDS011;39187;48.476;8.310;2024-03-08T12:54:55;25.33;;;19.10;;
53299;SDS011;39187;48.476;8.310;2024-03-08T12:57:21;31.63;;;18.83;;
53299;SDS011;39187;48.476;8.310;2024-03-08T12:59:46;32.57;;;20.10;;
53299;SDS011;39187;48.476;8.310;2024-03-08T13:02:12;26.17;;;17.47;;
53299;SDS011;39187;48.476;8.310;2024-03-08T13:04:37;25.23;;;17.47;;
53299;SDS011;39187;48.476;8.310;2024-03-08T13:07:03;30.43;;;18.40;;
53299;SDS011;39187;48.476;8.310;2024-03-08T13:09:28;26.90;;;17.23;;
53299;SDS011;39187;48.476;8.310;2024-03-08T13:11:54;24.83;;;17.07;;
53299;SDS011;39187;48.476;8.310;2024-03-08T13:14:20;28.27;;;18.60;;
53299;SDS011;39187;48.476;8.310;2024-03-08T13:16:47;34.20;;;20.43;;
53299;SDS011;39187;48.476;8.310;2024-03-08T13:19:13;28.07;;;17.03;;
53299;SDS011;39187;48.476;8.310;2024-03-08T13:21:38;31.63;;;19.03;;
53299;SDS011;39187;48.476;8.310;2024-03-08T13:24:04;29.00;;;21.60;;
53299;SDS011;39187;48.476;8.310;2024-03-08T13:26:30;30.93;;;20.23;;
53299;SDS011;39187;48.476;8.310;2024-03-08T13:28:58;31.80;;;19.13;;
53299;SDS011;39187;48.476;8.310;2024-03-08T13:31:23;30.20;;;19.60;;
53299;SDS011;39187;48.476;8.310;2024-03-08T13:33:49;34.10;;;19.63;;
53299;SDS011;39187;48.476;8.310;2024-03-08T13:36:16;27.90;;;18.70;;
53299;SDS011;39187;48.476;8.310;2024-03-08T13:38:48;32.10;;;19.60;;
53299;SDS011;39187;48.476;8.310;2024-03-08T13:41:14;30.80;;;19.27;;
53299;SDS011;39187;48.476;8.310;2024-03-08T13:43:42;30.13;;;19.13;;
53299;SDS011;39187;48.476;8.310;2024-03-08T13:46:11;30.20;;;19.30;;
53299;SDS011;39187;48.476;8.310;2024-03-08T13:48:37;29.10;;;17.90;;
53299;SDS011;39187;48.476;8.310;2024-03-08T13:51:03;29.57;;;17.03;;
53299;SDS011;39187;48.476;8.310;2024-03-08T13:53:31;25.20;;;18.43;;
53299;SDS011;39187;48.476;8.310;2024-03-08T13:55:58;35.63;;;20.07;;
53299;SDS011;39187;48.476;8.310;2024-03-08T13:58:24;29.57;;;19.70;;
53299;SDS011;39187;48.476;8.310;2024-03-08T14:00:49;30.63;;;20.40;;
53299;SDS011;39187;48.476;8.310;2024-03-08T14:03:16;32.97;;;22.13;;
53299;SDS011;39187;48.476;8.310;2024-03-08T14:05:42;30.63;;;20.67;;
53299;SDS011;39187;48.476;8.310;2024-03-08T14:08:10;32.40;;;20.57;;
53299;SDS011;39187;48.476;8.310;2024-03-08T14:10:37;26.83;;;18.13;;
53299;SDS011;39187;48.476;8.310;2024-03-08T14:13:03;29.77;;;19.50;;
53299;SDS011;39187;48.476;8.310;2024-03-08T14:15:33;26.33;;;18.67;;
53299;SDS011;39187;48.476;8.310;2024-03-08T14:18:06;33.53;;;20.80;;
53299;SDS011;39187;48.476;8.310;2024-03-08T14:20:32;27.57;;;17.50;;
53299;SDS011;39187;48.476;8.310;2024-03-08T14:22:57;27.23;;;18.63;;
53299;SDS011;39187;48.476;8.310;2024-03-08T14:25:23;27.37;;;18.37;;
53299;SDS011;39187;48.476;8.310;2024-03-08T14:27:50;28.27;;;19.57;;
53299;SDS011;39187;48.476;8.310;2024-03-08T14:30:21;26.67;;;19.17;;
53299;SDS011;39187;48.476;8.310;2024-03-08T14:33:06;27.73;;;18.43;;
53299;SDS011;39187;48.476;8.310;2024-03-08T14:35:34;28.47;;;18.10;;